createdAt,value
2023-05-18T00:00:35.377Z,43.15
2023-05-18T00:01:35.367Z,43.13
2023-05-18T00:02:35.512Z,43.11
2023-05-18T00:03:35.476Z,43.12
2023-05-18T00:04:35.463Z,43.10
2023-05-18T00:05:35.445Z,43.09
2023-05-18T00:06:35.468Z,43.12
2023-05-18T00:07:35.486Z,43.12
2023-05-18T00:08:35.505Z,43.08
2023-05-18T00:09:35.565Z,43.09
2023-05-18T00:10:35.596Z,43.09
2023-05-18T00:11:35.568Z,43.08
2023-05-18T00:12:35.582Z,43.05
2023-05-18T00:13:35.614Z,43.04
2023-05-18T00:14:35.619Z,43.07
2023-05-18T00:15:35.650Z,43.08
2023-05-18T00:16:35.675Z,43.05
2023-05-18T00:17:35.708Z,43.07
2023-05-18T00:18:35.680Z,43.04
2023-05-18T00:19:35.728Z,43.02
2023-05-18T00:20:35.731Z,43.02
2023-05-18T00:21:35.740Z,43.05
2023-05-18T00:22:35.749Z,43.05
2023-05-18T00:23:35.801Z,43.03
2023-05-18T00:24:37.138Z,43.01
2023-05-18T00:25:35.818Z,43.02
2023-05-18T00:26:35.843Z,43.00
2023-05-18T00:27:35.880Z,43.00
2023-05-18T00:28:35.898Z,43.01
2023-05-18T00:29:35.922Z,43.01
2023-05-18T00:30:35.980Z,43.02
2023-05-18T00:31:36.018Z,43.03
2023-05-18T00:32:36.004Z,43.02
2023-05-18T00:33:36.030Z,43.01
2023-05-18T00:34:36.041Z,42.99
2023-05-18T00:35:36.062Z,43.02
2023-05-18T00:36:36.079Z,42.98
2023-05-18T00:37:36.166Z,43.01
2023-05-18T00:38:36.115Z,42.98
2023-05-18T00:39:36.126Z,42.98
2023-05-18T00:40:36.166Z,42.94
2023-05-18T00:41:36.181Z,42.98
2023-05-18T00:42:36.220Z,42.99
2023-05-18T00:43:36.234Z,42.97
2023-05-18T00:44:36.247Z,42.96
2023-05-18T00:45:36.343Z,42.95
2023-05-18T00:46:36.381Z,42.97
2023-05-18T00:47:36.363Z,42.98
2023-05-18T00:48:36.362Z,42.96
2023-05-18T00:49:36.386Z,42.95
2023-05-18T00:50:36.399Z,42.96
2023-05-18T00:51:36.430Z,42.98
2023-05-18T00:52:36.456Z,42.98
2023-05-18T00:53:36.464Z,42.94
2023-05-18T00:54:36.515Z,42.94
2023-05-18T00:55:36.513Z,42.93
2023-05-18T00:56:36.574Z,42.94
2023-05-18T00:57:36.556Z,42.96
2023-05-18T00:58:36.608Z,42.93
2023-05-18T00:59:36.631Z,42.93
2023-05-18T01:00:36.642Z,42.95
2023-05-18T01:01:36.829Z,42.94
2023-05-18T01:02:36.748Z,42.96
2023-05-18T01:03:36.719Z,42.93
2023-05-18T01:04:36.721Z,42.95
2023-05-18T01:05:36.733Z,42.92
2023-05-18T01:06:36.775Z,42.95
2023-05-18T01:07:36.782Z,42.95
2023-05-18T01:08:36.820Z,42.92
2023-05-18T01:09:36.862Z,42.93
2023-05-18T01:10:36.859Z,42.91
2023-05-18T01:11:36.928Z,42.91
2023-05-18T01:12:36.923Z,42.89
2023-05-18T01:13:36.929Z,42.89
2023-05-18T01:14:36.948Z,42.89
2023-05-18T01:15:36.971Z,42.90
2023-05-18T01:16:37.046Z,42.92
2023-05-18T01:17:37.098Z,42.90
2023-05-18T01:18:37.116Z,42.91
2023-05-18T01:19:37.077Z,42.93
2023-05-18T01:20:37.118Z,42.92
2023-05-18T01:21:37.115Z,42.92
2023-05-18T01:22:37.141Z,42.89
2023-05-18T01:23:37.167Z,42.90
2023-05-18T01:24:37.225Z,42.88
2023-05-18T01:25:37.219Z,42.89
2023-05-18T01:26:37.272Z,42.88
2023-05-18T01:27:37.262Z,42.91
2023-05-18T01:28:37.293Z,42.90
2023-05-18T01:29:37.320Z,42.90
2023-05-18T01:30:37.366Z,42.86
2023-05-18T01:31:37.402Z,42.86
2023-05-18T01:32:37.411Z,42.88
2023-05-18T01:33:37.415Z,42.84
2023-05-18T01:34:37.452Z,42.88
2023-05-18T01:35:37.453Z,42.84
2023-05-18T01:36:37.474Z,42.84
2023-05-18T01:37:37.492Z,42.86
2023-05-18T01:38:37.502Z,42.87
2023-05-18T01:39:37.537Z,42.83
2023-05-18T01:40:37.566Z,42.88
2023-05-18T01:41:37.589Z,42.87
2023-05-18T01:42:37.619Z,42.86
2023-05-18T01:43:37.644Z,42.86
2023-05-18T01:44:37.655Z,42.86
2023-05-18T01:45:37.678Z,42.86
2023-05-18T01:46:37.763Z,42.86
2023-05-18T01:47:37.759Z,42.86
2023-05-18T01:48:37.761Z,42.88
2023-05-18T01:49:37.870Z,42.89
2023-05-18T01:50:37.858Z,42.87
2023-05-18T01:51:37.834Z,42.85
2023-05-18T01:52:37.876Z,42.83
2023-05-18T01:53:37.906Z,42.84
2023-05-18T01:54:37.933Z,42.85
2023-05-18T01:55:37.973Z,42.84
2023-05-18T01:56:37.982Z,42.82
2023-05-18T01:57:38.039Z,42.85
2023-05-18T01:58:38.052Z,42.86
2023-05-18T01:59:38.085Z,42.83
2023-05-18T02:00:38.106Z,42.82
2023-05-18T02:01:38.187Z,42.82
2023-05-18T02:02:38.271Z,42.83
2023-05-18T02:03:38.238Z,42.81
2023-05-18T02:04:38.203Z,42.83
2023-05-18T02:05:38.214Z,42.81
2023-05-18T02:06:38.241Z,42.81
2023-05-18T02:07:38.310Z,42.81
2023-05-18T02:08:38.316Z,42.82
2023-05-18T02:09:38.354Z,42.82
2023-05-18T02:10:38.389Z,42.80
2023-05-18T02:11:38.394Z,42.82
2023-05-18T02:12:38.422Z,42.80
2023-05-18T02:13:38.443Z,42.79
2023-05-18T02:14:38.491Z,42.77
2023-05-18T02:15:38.516Z,42.81
2023-05-18T02:16:38.587Z,42.73
2023-05-18T02:17:38.620Z,42.75
2023-05-18T02:18:38.643Z,42.75
2023-05-18T02:19:38.671Z,42.77
2023-05-18T02:20:38.660Z,42.74
2023-05-18T02:21:38.700Z,42.76
2023-05-18T02:22:38.758Z,42.76
2023-05-18T02:23:38.750Z,42.77
2023-05-18T02:24:38.781Z,42.77
2023-05-18T02:25:38.809Z,42.78
2023-05-18T02:26:38.844Z,42.75
2023-05-18T02:27:38.864Z,42.76
2023-05-18T02:28:38.884Z,42.73
2023-05-18T02:29:38.937Z,42.73
2023-05-18T02:30:38.948Z,42.73
2023-05-18T02:31:39.131Z,42.72
2023-05-18T02:32:39.056Z,42.73
2023-05-18T02:33:39.029Z,42.74
2023-05-18T02:34:39.105Z,42.75
2023-05-18T02:35:39.093Z,42.75
2023-05-18T02:36:39.129Z,42.72
2023-05-18T02:37:39.195Z,42.72
2023-05-18T02:38:39.204Z,42.72
2023-05-18T02:39:39.234Z,42.71
2023-05-18T02:40:39.253Z,42.72
2023-05-18T02:41:39.282Z,42.70
2023-05-18T02:42:39.323Z,42.72
2023-05-18T02:43:39.330Z,42.69
2023-05-18T02:44:39.415Z,42.68
2023-05-18T02:45:39.467Z,42.71
2023-05-18T02:46:39.448Z,42.71
2023-05-18T02:47:39.537Z,42.68
2023-05-18T02:48:39.519Z,42.67
2023-05-18T02:49:39.557Z,42.70
2023-05-18T02:50:39.588Z,42.69
2023-05-18T02:51:39.633Z,42.70
2023-05-18T02:52:39.666Z,42.71
2023-05-18T02:53:39.706Z,42.67
2023-05-18T02:54:39.772Z,42.71
2023-05-18T02:55:39.777Z,42.71
2023-05-18T02:56:39.797Z,42.70
2023-05-18T02:57:39.873Z,42.69
2023-05-18T02:58:39.889Z,42.70
2023-05-18T02:59:39.922Z,42.68
2023-05-18T03:00:39.942Z,42.68
2023-05-18T03:01:40.158Z,42.68
2023-05-18T03:02:40.100Z,42.70
2023-05-18T03:03:40.080Z,42.66
2023-05-18T03:04:40.095Z,42.66
2023-05-18T03:05:40.122Z,42.68
2023-05-18T03:06:40.161Z,42.64
2023-05-18T03:07:40.216Z,42.65
2023-05-18T03:08:40.234Z,42.63
2023-05-18T03:09:40.297Z,42.65
2023-05-18T03:10:40.297Z,42.64
2023-05-18T03:11:40.341Z,42.64
2023-05-18T03:12:40.382Z,42.64
2023-05-18T03:13:40.432Z,42.65
2023-05-18T03:14:40.446Z,42.66
2023-05-18T03:15:40.493Z,42.65
2023-05-18T03:16:40.612Z,42.65
2023-05-18T03:17:40.562Z,42.65
2023-05-18T03:18:40.672Z,42.66
2023-05-18T03:19:40.635Z,42.65
2023-05-18T03:20:40.705Z,42.62
2023-05-18T03:21:40.720Z,42.60
2023-05-18T03:22:40.785Z,42.60
2023-05-18T03:23:40.803Z,42.55
2023-05-18T03:25:40.859Z,42.60
2023-05-18T03:26:40.928Z,42.58
2023-05-18T03:27:40.915Z,42.58
2023-05-18T03:28:40.972Z,42.57
2023-05-18T03:29:41.003Z,42.58
2023-05-18T03:30:41.055Z,42.57
2023-05-18T03:31:41.112Z,42.55
2023-05-18T03:32:41.175Z,42.55
2023-05-18T03:33:41.144Z,42.53
2023-05-18T03:34:41.168Z,42.56
2023-05-18T03:35:41.195Z,42.59
2023-05-18T03:36:41.280Z,42.56
2023-05-18T03:37:41.275Z,42.54
2023-05-18T03:38:41.313Z,42.56
2023-05-18T03:39:41.365Z,42.57
2023-05-18T03:40:41.384Z,42.55
2023-05-18T03:41:41.448Z,42.57
2023-05-18T03:42:41.492Z,42.54
2023-05-18T03:43:41.515Z,42.55
2023-05-18T03:44:41.556Z,42.54
2023-05-18T03:45:41.588Z,42.52
2023-05-18T03:46:41.726Z,42.57
2023-05-18T03:47:41.774Z,42.57
2023-05-18T03:48:41.727Z,42.57
2023-05-18T03:49:41.766Z,42.54
2023-05-18T03:50:41.813Z,42.54
2023-05-18T03:51:41.834Z,42.52
2023-05-18T03:52:41.863Z,42.54
2023-05-18T03:53:41.908Z,42.57
2023-05-18T03:54:41.954Z,42.54
2023-05-18T03:55:42.046Z,42.55
2023-05-18T03:56:42.041Z,42.52
2023-05-18T03:57:42.071Z,42.50
2023-05-18T03:58:42.121Z,42.51
2023-05-18T03:59:42.161Z,42.51
2023-05-18T04:00:42.206Z,42.49
2023-05-18T04:01:42.315Z,42.49
2023-05-18T04:02:42.328Z,42.49
2023-05-18T04:03:42.400Z,42.54
2023-05-18T04:04:42.401Z,42.47
2023-05-18T04:05:42.403Z,42.47
2023-05-18T04:06:42.457Z,42.46
2023-05-18T04:07:42.490Z,42.44
2023-05-18T04:08:42.529Z,42.49
2023-05-18T04:09:42.574Z,42.49
2023-05-18T04:10:42.616Z,42.51
2023-05-18T04:11:42.648Z,42.48
2023-05-18T04:12:42.705Z,42.50
2023-05-18T04:13:42.741Z,42.49
2023-05-18T04:14:42.778Z,42.48
2023-05-18T04:15:42.873Z,42.44
2023-05-18T04:16:42.933Z,42.48
2023-05-18T04:17:42.933Z,42.43
2023-05-18T04:18:42.966Z,42.45
2023-05-18T04:19:43.008Z,42.46
2023-05-18T04:20:43.007Z,42.45
2023-05-18T04:21:43.059Z,42.44
2023-05-18T04:22:43.102Z,42.44
2023-05-18T04:23:43.128Z,42.43
2023-05-18T04:24:43.180Z,42.46
2023-05-18T04:25:43.235Z,42.44
2023-05-18T04:26:43.268Z,42.46
2023-05-18T04:27:43.331Z,42.45
2023-05-18T04:28:43.347Z,42.40
2023-05-18T04:29:43.414Z,42.42
2023-05-18T04:30:43.438Z,42.42
2023-05-18T04:31:43.567Z,42.41
2023-05-18T04:32:43.842Z,42.41
2023-05-18T04:33:43.558Z,42.41
2023-05-18T04:34:43.627Z,42.40
2023-05-18T04:35:43.656Z,42.43
2023-05-18T04:36:43.694Z,42.38
2023-05-18T04:37:43.755Z,42.38
2023-05-18T04:38:43.783Z,42.40
2023-05-18T04:39:43.862Z,42.39
2023-05-18T04:40:43.869Z,42.40
2023-05-18T04:41:43.912Z,42.42
2023-05-18T04:42:43.945Z,42.40
2023-05-18T04:43:43.990Z,42.39
2023-05-18T04:44:44.044Z,42.38
2023-05-18T04:45:44.126Z,42.36
2023-05-18T04:46:44.140Z,42.33
2023-05-18T04:47:44.261Z,42.35
2023-05-18T04:48:44.224Z,42.37
2023-05-18T04:49:44.279Z,42.36
2023-05-18T04:50:44.300Z,42.38
2023-05-18T04:51:44.330Z,42.36
2023-05-18T04:52:44.375Z,42.34
2023-05-18T04:53:44.444Z,42.36
2023-05-18T04:54:44.468Z,42.37
2023-05-18T04:55:44.513Z,42.35
2023-05-18T04:56:44.570Z,42.38
2023-05-18T04:57:44.610Z,42.35
2023-05-18T04:58:44.641Z,42.33
2023-05-18T04:59:44.710Z,42.34
2023-05-18T05:00:44.712Z,42.34
2023-05-18T05:01:44.862Z,42.34
2023-05-18T05:02:44.881Z,42.32
2023-05-18T05:03:45.003Z,42.32
2023-05-18T05:04:44.907Z,42.32
2023-05-18T05:05:44.930Z,42.30
2023-05-18T05:06:44.971Z,42.31
2023-05-18T05:07:45.016Z,42.28
2023-05-18T05:08:45.042Z,42.30
2023-05-18T05:09:45.108Z,42.30
2023-05-18T05:10:45.134Z,42.31
2023-05-18T05:11:45.171Z,42.31
2023-05-18T05:12:46.443Z,42.31
2023-05-18T05:13:45.256Z,42.30
2023-05-18T05:14:45.295Z,42.30
2023-05-18T05:15:45.337Z,42.29
2023-05-18T05:16:45.358Z,42.28
2023-05-18T05:17:45.432Z,42.22
2023-05-18T05:18:47.310Z,42.25
2023-05-18T05:19:45.521Z,42.26
2023-05-18T05:20:45.534Z,42.24
2023-05-18T05:21:45.559Z,42.23
2023-05-18T05:22:45.645Z,42.25
2023-05-18T05:23:45.668Z,42.24
2023-05-18T05:24:45.706Z,42.24
2023-05-18T05:25:45.726Z,42.21
2023-05-18T05:26:45.759Z,42.23
2023-05-18T05:27:45.797Z,42.22
2023-05-18T05:28:45.855Z,42.23
2023-05-18T05:29:45.878Z,42.19
2023-05-18T05:30:45.918Z,42.19
2023-05-18T05:31:45.983Z,42.18
2023-05-18T05:32:46.098Z,42.16
2023-05-18T05:33:46.045Z,42.16
2023-05-18T05:34:46.071Z,42.16
2023-05-18T05:35:46.108Z,42.14
2023-05-18T05:36:46.168Z,42.11
2023-05-18T05:37:46.251Z,42.13
2023-05-18T05:38:46.235Z,42.15
2023-05-18T05:39:46.278Z,42.11
2023-05-18T05:40:46.297Z,42.12
2023-05-18T05:41:46.336Z,42.12
2023-05-18T05:42:46.377Z,42.10
2023-05-18T05:43:46.409Z,42.11
2023-05-18T05:44:46.462Z,42.13
2023-05-18T05:45:46.505Z,42.11
2023-05-18T05:46:46.570Z,42.10
2023-05-18T05:47:46.612Z,42.07
2023-05-18T05:48:46.603Z,42.04
2023-05-18T05:49:46.636Z,42.06
2023-05-18T05:50:46.675Z,42.02
2023-05-18T05:51:46.731Z,42.04
2023-05-18T05:52:46.754Z,42.02
2023-05-18T05:53:46.801Z,41.99
2023-05-18T05:54:46.844Z,42.04
2023-05-18T05:55:46.874Z,42.01
2023-05-18T05:56:46.920Z,41.98
2023-05-18T05:57:46.958Z,42.01
2023-05-18T05:58:47.002Z,42.02
2023-05-18T05:59:47.032Z,42.02
2023-05-18T06:00:47.121Z,42.02
2023-05-18T06:01:47.157Z,42.01
2023-05-18T06:02:47.177Z,41.98
2023-05-18T06:03:47.248Z,41.98
2023-05-18T06:04:47.261Z,41.97
2023-05-18T06:05:47.300Z,41.96
2023-05-18T06:06:47.354Z,41.94
2023-05-18T06:07:47.370Z,41.93
2023-05-18T06:08:47.423Z,41.95
2023-05-18T06:09:47.491Z,41.93
2023-05-18T06:10:47.506Z,41.92
2023-05-18T06:11:47.543Z,41.89
2023-05-18T06:12:47.597Z,41.91
2023-05-18T06:13:47.642Z,41.92
2023-05-18T06:14:47.707Z,41.91
2023-05-18T06:15:47.714Z,41.91
2023-05-18T06:16:47.912Z,41.92
2023-05-18T06:17:47.851Z,41.92
2023-05-18T06:18:47.856Z,41.88
2023-05-18T06:19:47.867Z,41.86
2023-05-18T06:20:47.900Z,41.91
2023-05-18T06:21:47.941Z,41.91
2023-05-18T06:22:48.003Z,41.90
2023-05-18T06:23:48.070Z,41.93
2023-05-18T06:24:48.117Z,41.89
2023-05-18T06:25:48.108Z,41.88
2023-05-18T06:26:48.153Z,41.88
2023-05-18T06:27:48.178Z,41.92
2023-05-18T06:28:48.215Z,41.86
2023-05-18T06:29:48.280Z,41.90
2023-05-18T06:30:48.304Z,41.87
2023-05-18T06:31:48.413Z,41.86
2023-05-18T06:32:48.408Z,41.87
2023-05-18T06:33:48.426Z,41.89
2023-05-18T06:34:48.457Z,41.83
2023-05-18T06:35:48.498Z,41.84
2023-05-18T06:36:48.520Z,41.86
2023-05-18T06:37:48.552Z,41.84
2023-05-18T06:38:48.604Z,41.81
2023-05-18T06:39:48.621Z,41.87
2023-05-18T06:40:48.687Z,41.82
2023-05-18T06:41:48.695Z,41.83
2023-05-18T06:42:48.738Z,41.81
2023-05-18T06:43:48.803Z,41.80
2023-05-18T06:44:48.838Z,41.81
2023-05-18T06:45:48.877Z,41.79
2023-05-18T06:46:48.902Z,41.80
2023-05-18T06:47:49.018Z,41.78
2023-05-18T06:48:48.994Z,41.77
2023-05-18T06:49:49.020Z,41.79
2023-05-18T06:50:49.072Z,41.77
2023-05-18T06:51:49.098Z,41.79
2023-05-18T06:52:49.139Z,41.79
2023-05-18T06:53:49.190Z,41.78
2023-05-18T06:54:49.207Z,41.76
2023-05-18T06:55:49.244Z,41.76
2023-05-18T06:56:49.292Z,41.80
2023-05-18T06:57:49.312Z,41.80
2023-05-18T06:58:49.386Z,41.77
2023-05-18T06:59:49.392Z,41.77
2023-05-18T07:00:49.420Z,41.77
2023-05-18T07:01:49.594Z,41.75
2023-05-18T07:02:49.543Z,41.76
2023-05-18T07:03:49.576Z,41.74
2023-05-18T07:04:49.583Z,41.73
2023-05-18T07:05:49.628Z,41.69
2023-05-18T07:06:49.630Z,41.71
2023-05-18T07:07:49.686Z,41.71
2023-05-18T07:08:49.726Z,41.72
2023-05-18T07:09:49.784Z,41.72
2023-05-18T07:10:49.798Z,41.70
2023-05-18T07:11:49.833Z,41.73
2023-05-18T07:12:49.877Z,41.73
2023-05-18T07:13:49.924Z,41.72
2023-05-18T07:14:49.946Z,41.71
2023-05-18T07:15:49.986Z,41.71
2023-05-18T07:16:50.016Z,41.67
2023-05-18T07:17:50.067Z,41.64
2023-05-18T07:18:50.099Z,41.68
2023-05-18T07:19:50.119Z,41.64
2023-05-18T07:20:50.155Z,41.64
2023-05-18T07:21:50.160Z,41.59
2023-05-18T07:22:50.193Z,41.60
2023-05-18T07:23:50.253Z,41.62
2023-05-18T07:24:50.275Z,41.57
2023-05-18T07:25:50.292Z,41.60
2023-05-18T07:26:50.323Z,41.60
2023-05-18T07:27:50.383Z,41.59
2023-05-18T07:28:50.405Z,41.61
2023-05-18T07:29:50.459Z,41.60
2023-05-18T07:30:50.501Z,41.55
2023-05-18T07:31:50.551Z,41.59
2023-05-18T07:32:50.563Z,41.53
2023-05-18T07:33:50.553Z,41.53
2023-05-18T07:34:50.633Z,41.50
2023-05-18T07:35:50.638Z,41.51
2023-05-18T07:36:50.645Z,41.51
2023-05-18T07:37:50.667Z,41.48
2023-05-18T07:38:50.704Z,41.47
2023-05-18T07:39:50.755Z,41.50
2023-05-18T07:40:50.761Z,41.43
2023-05-18T07:41:50.805Z,41.45
2023-05-18T07:42:50.809Z,41.42
2023-05-18T07:43:50.845Z,41.44
2023-05-18T07:44:50.878Z,41.43
2023-05-18T07:45:50.967Z,41.44
2023-05-18T07:46:50.974Z,41.42
2023-05-18T07:47:51.037Z,41.42
2023-05-18T07:48:50.985Z,41.41
2023-05-18T07:49:51.045Z,41.41
2023-05-18T07:50:51.065Z,41.41
2023-05-18T07:51:51.052Z,41.41
2023-05-18T07:52:51.112Z,41.39
2023-05-18T07:53:51.117Z,41.37
2023-05-18T07:54:51.147Z,41.36
2023-05-18T07:55:51.164Z,41.38
2023-05-18T07:56:51.212Z,41.37
2023-05-18T07:57:51.210Z,41.36
2023-05-18T07:58:51.268Z,41.34
2023-05-18T07:59:51.278Z,41.34
2023-05-18T08:00:51.301Z,41.34
2023-05-18T08:01:51.360Z,41.29
2023-05-18T08:02:51.597Z,41.32
2023-05-18T08:03:51.443Z,41.30
2023-05-18T08:04:51.407Z,41.30
2023-05-18T08:05:51.418Z,41.28
2023-05-18T08:06:51.441Z,41.29
2023-05-18T08:07:51.485Z,41.26
2023-05-18T08:08:51.484Z,41.26
2023-05-18T08:09:51.499Z,41.26
2023-05-18T08:10:51.538Z,41.25
2023-05-18T08:11:51.578Z,41.27
2023-05-18T08:12:51.594Z,41.23
2023-05-18T08:13:51.626Z,41.25
2023-05-18T08:14:51.688Z,41.27
2023-05-18T08:16:03.137Z,41.24
2023-05-18T08:16:52.785Z,41.27
2023-05-18T08:17:51.701Z,41.28
2023-05-18T08:18:51.695Z,41.27
2023-05-18T08:19:51.646Z,41.23
2023-05-18T08:20:51.636Z,41.24
2023-05-18T08:21:51.627Z,41.27
2023-05-18T08:22:51.624Z,41.22
2023-05-18T08:23:51.611Z,41.23
2023-05-18T08:24:51.595Z,41.22
2023-05-18T08:25:51.595Z,41.22
2023-05-18T08:26:51.578Z,41.22
2023-05-18T08:27:51.594Z,41.21
2023-05-18T08:28:51.582Z,41.21
2023-05-18T08:29:51.587Z,41.18
2023-05-18T08:30:51.585Z,41.19
2023-05-18T08:31:51.614Z,41.19
2023-05-18T08:32:51.613Z,41.18
2023-05-18T08:33:51.552Z,41.18
2023-05-18T08:34:51.549Z,41.16
2023-05-18T08:35:51.544Z,41.12
2023-05-18T08:36:51.524Z,41.15
2023-05-18T08:37:51.518Z,41.18
2023-05-18T08:38:51.521Z,41.15
2023-05-18T08:39:51.515Z,41.12
2023-05-18T08:40:51.571Z,41.15
2023-05-18T08:41:51.562Z,41.11
2023-05-18T08:42:51.577Z,41.12
2023-05-18T08:43:51.596Z,41.13
2023-05-18T08:44:51.653Z,41.06
2023-05-18T08:45:51.622Z,41.08
2023-05-18T08:46:51.689Z,41.09
2023-05-18T08:47:51.753Z,41.08
2023-05-18T08:48:51.729Z,41.08
2023-05-18T08:49:51.702Z,41.05
2023-05-18T08:50:51.723Z,41.08
2023-05-18T08:51:51.712Z,41.04
2023-05-18T08:52:51.740Z,41.04
2023-05-18T08:53:51.716Z,41.03
2023-05-18T08:54:51.763Z,41.01
2023-05-18T08:55:51.759Z,41.03
2023-05-18T08:56:51.768Z,41.02
2023-05-18T08:57:51.796Z,41.00
2023-05-18T08:58:51.791Z,41.01
2023-05-18T08:59:51.811Z,41.00
2023-05-18T09:00:51.812Z,40.99
2023-05-18T09:01:51.882Z,40.98
2023-05-18T09:02:51.930Z,40.97
2023-05-18T09:03:51.883Z,40.98
2023-05-18T09:04:51.919Z,40.98
2023-05-18T09:05:51.894Z,40.93
2023-05-18T09:06:51.924Z,40.98
2023-05-18T09:07:51.910Z,40.94
2023-05-18T09:08:51.928Z,40.99
2023-05-18T09:09:51.933Z,40.93
2023-05-18T09:10:51.985Z,40.93
2023-05-18T09:11:51.957Z,40.93
2023-05-18T09:12:51.971Z,40.95
2023-05-18T09:13:51.990Z,40.95
2023-05-18T09:14:52.004Z,40.94
2023-05-18T09:15:52.047Z,40.87
2023-05-18T09:16:52.032Z,40.86
2023-05-18T09:17:52.113Z,40.89
2023-05-18T09:18:52.054Z,40.86
2023-05-18T09:19:52.067Z,40.87
2023-05-18T09:20:52.075Z,40.87
2023-05-18T09:21:52.077Z,40.88
2023-05-18T09:22:52.091Z,40.86
2023-05-18T09:23:52.115Z,40.85
2023-05-18T09:24:52.136Z,40.88
2023-05-18T09:25:52.173Z,40.88
2023-05-18T09:26:52.146Z,40.90
2023-05-18T09:27:52.163Z,40.90
2023-05-18T09:28:52.182Z,40.90
2023-05-18T09:29:52.179Z,40.92
2023-05-18T09:30:52.209Z,40.92
2023-05-18T09:31:52.286Z,40.90
2023-05-18T09:32:52.284Z,40.91
2023-05-18T09:33:52.306Z,40.91
2023-05-18T09:34:52.276Z,40.90
2023-05-18T09:35:52.343Z,40.90
2023-05-18T09:36:52.311Z,40.89
2023-05-18T09:37:52.320Z,40.85
2023-05-18T09:38:52.349Z,40.89
2023-05-18T09:39:52.354Z,40.90
2023-05-18T09:40:52.382Z,40.89
2023-05-18T09:41:52.390Z,40.87
2023-05-18T09:42:52.419Z,40.88
2023-05-18T09:43:52.430Z,40.84
2023-05-18T09:44:52.432Z,40.84
2023-05-18T09:45:52.442Z,40.86
2023-05-18T09:46:52.481Z,40.87
2023-05-18T09:47:52.553Z,40.83
2023-05-18T09:48:52.468Z,40.83
2023-05-18T09:49:52.524Z,40.86
2023-05-18T09:50:52.624Z,40.80
2023-05-18T09:51:52.522Z,40.76
2023-05-18T09:52:52.543Z,40.79
2023-05-18T09:53:52.576Z,40.80
2023-05-18T09:54:52.574Z,40.83
2023-05-18T09:55:52.582Z,40.83
2023-05-18T09:57:02.390Z,40.80
2023-05-18T09:57:53.714Z,40.80
2023-05-18T09:58:52.625Z,40.81
2023-05-18T09:59:52.582Z,40.83
2023-05-18T10:00:52.589Z,40.82
2023-05-18T10:01:52.558Z,40.78
2023-05-18T10:02:52.967Z,40.78
2023-05-18T10:03:52.575Z,40.80
2023-05-18T10:04:52.570Z,40.76
2023-05-18T10:05:52.529Z,40.75
2023-05-18T10:06:52.513Z,40.80
2023-05-18T10:07:52.518Z,40.78
2023-05-18T10:08:52.499Z,40.81
2023-05-18T10:09:52.502Z,40.76
2023-05-18T10:10:52.520Z,40.78
2023-05-18T10:11:52.486Z,40.79
2023-05-18T10:12:52.473Z,40.74
2023-05-18T10:13:52.474Z,40.76
2023-05-18T10:14:52.479Z,40.75
2023-05-18T10:15:52.491Z,40.70
2023-05-18T10:16:57.566Z,40.73
2023-05-18T10:17:53.481Z,40.80
2023-05-18T10:18:52.437Z,40.76
2023-05-18T10:19:52.423Z,40.78
2023-05-18T10:20:52.416Z,40.77
2023-05-18T10:21:52.423Z,40.77
2023-05-18T10:22:52.414Z,40.78
2023-05-18T10:23:52.392Z,40.79
2023-05-18T10:24:52.397Z,40.72
2023-05-18T10:25:52.393Z,40.75
2023-05-18T10:26:54.099Z,40.77
2023-05-18T10:27:52.368Z,40.73
2023-05-18T10:28:52.373Z,40.76
2023-05-18T10:29:52.727Z,40.77
2023-05-18T10:30:52.420Z,40.74
2023-05-18T10:31:52.332Z,40.74
2023-05-18T10:32:52.415Z,40.77
2023-05-18T10:33:52.352Z,40.76
2023-05-18T10:34:52.323Z,40.74
2023-05-18T10:35:52.336Z,40.71
2023-05-18T10:36:52.305Z,40.72
2023-05-18T10:37:52.308Z,40.74
2023-05-18T10:38:52.316Z,40.72
2023-05-18T10:39:52.305Z,40.70
2023-05-18T10:40:52.284Z,40.69
2023-05-18T10:41:52.279Z,40.71
2023-05-18T10:42:52.271Z,40.71
2023-05-18T10:43:52.254Z,40.72
2023-05-18T10:44:52.252Z,40.72
2023-05-18T10:45:52.273Z,40.70
2023-05-18T10:46:52.389Z,40.70
2023-05-18T10:47:52.381Z,40.71
2023-05-18T10:48:52.218Z,40.72
2023-05-18T10:49:52.224Z,40.71
2023-05-18T10:50:52.218Z,40.73
2023-05-18T10:51:52.200Z,40.71
2023-05-18T10:52:52.191Z,40.74
2023-05-18T10:53:54.541Z,40.73
2023-05-18T10:54:52.187Z,40.74
2023-05-18T10:55:52.192Z,40.71
2023-05-18T10:56:52.162Z,40.76
2023-05-18T10:57:52.173Z,40.72
2023-05-18T10:58:52.153Z,40.74
2023-05-18T10:59:52.143Z,40.76
2023-05-18T11:00:52.159Z,40.72
2023-05-18T11:01:52.189Z,40.72
2023-05-18T11:02:52.192Z,40.73
2023-05-18T11:03:52.124Z,40.72
2023-05-18T11:04:54.130Z,40.74
2023-05-18T11:05:52.108Z,40.72
2023-05-18T11:06:52.100Z,40.71
2023-05-18T11:07:52.112Z,40.71
2023-05-18T11:08:52.090Z,40.74
2023-05-18T11:09:52.119Z,40.73
2023-05-18T11:10:52.090Z,40.73
2023-05-18T11:11:52.083Z,40.72
2023-05-18T11:12:52.083Z,40.74
2023-05-18T11:13:52.115Z,40.71
2023-05-18T11:14:52.076Z,40.71
2023-05-18T11:15:52.114Z,40.71
2023-05-18T11:16:52.170Z,40.68
2023-05-18T11:17:52.169Z,40.70
2023-05-18T11:18:52.312Z,40.69
2023-05-18T11:19:52.185Z,40.68
2023-05-18T11:20:52.202Z,40.63
2023-05-18T11:21:52.230Z,40.62
2023-05-18T11:22:52.252Z,40.64
2023-05-18T11:23:52.259Z,40.66
2023-05-18T11:24:52.275Z,40.67
2023-05-18T11:25:52.312Z,40.68
2023-05-18T11:26:52.326Z,40.70
2023-05-18T11:27:52.338Z,40.66
2023-05-18T11:28:52.377Z,40.66
2023-05-18T11:30:03.788Z,40.67
2023-05-18T11:30:53.416Z,40.67
2023-05-18T11:31:52.415Z,40.68
2023-05-18T11:32:52.519Z,40.68
2023-05-18T11:33:52.363Z,40.63
2023-05-18T11:34:52.370Z,40.61
2023-05-18T11:35:52.358Z,40.61
2023-05-18T11:36:52.365Z,40.62
2023-05-18T11:37:52.374Z,40.64
2023-05-18T11:38:52.336Z,40.67
2023-05-18T11:39:59.484Z,40.62
2023-05-18T11:40:53.322Z,40.64
2023-05-18T11:41:52.459Z,40.62
2023-05-18T11:42:52.302Z,40.62
2023-05-18T11:43:52.290Z,40.63
2023-05-18T11:44:52.281Z,40.62
2023-05-18T11:45:52.308Z,40.62
2023-05-18T11:46:52.310Z,40.62
2023-05-18T11:47:52.357Z,40.57
2023-05-18T11:48:52.356Z,40.57
2023-05-18T11:49:52.259Z,40.57
2023-05-18T11:50:52.244Z,40.58
2023-05-18T11:51:52.227Z,40.58
2023-05-18T11:52:52.227Z,40.60
2023-05-18T11:53:52.213Z,40.58
2023-05-18T11:54:52.239Z,40.57
2023-05-18T11:55:52.216Z,40.56
2023-05-18T11:56:52.207Z,40.59
2023-05-18T11:57:52.261Z,40.57
2023-05-18T11:58:52.188Z,40.54
2023-05-18T11:59:52.192Z,40.55
2023-05-18T12:00:52.616Z,40.56
2023-05-18T12:01:52.178Z,40.56
2023-05-18T12:02:52.292Z,40.54
2023-05-18T12:03:52.262Z,40.57
2023-05-18T12:04:52.148Z,40.52
2023-05-18T12:05:52.140Z,40.54
2023-05-18T12:06:52.129Z,40.53
2023-05-18T12:07:52.127Z,40.53
2023-05-18T12:08:52.120Z,40.52
2023-05-18T12:09:52.138Z,40.49
2023-05-18T12:10:52.153Z,40.46
2023-05-18T12:11:52.145Z,40.46
2023-05-18T12:12:52.161Z,40.46
2023-05-18T12:13:52.184Z,40.48
2023-05-18T12:14:52.180Z,40.48
2023-05-18T12:15:52.203Z,40.48
2023-05-18T12:16:52.289Z,40.45
2023-05-18T12:17:52.263Z,40.46
2023-05-18T12:18:52.260Z,40.45
2023-05-18T12:19:52.223Z,40.45
2023-05-18T12:20:52.228Z,40.45
2023-05-18T12:21:52.231Z,40.44
2023-05-18T12:22:52.411Z,40.45
2023-05-18T12:23:52.245Z,40.43
2023-05-18T12:24:52.261Z,40.43
2023-05-18T12:25:52.284Z,40.43
2023-05-18T12:26:52.298Z,40.43
2023-05-18T12:27:52.295Z,40.42
2023-05-18T12:28:52.308Z,40.42
2023-05-18T12:29:52.307Z,40.39
2023-05-18T12:30:52.335Z,40.40
2023-05-18T12:31:52.358Z,40.38
2023-05-18T12:32:52.407Z,40.40
2023-05-18T12:33:52.382Z,40.41
2023-05-18T12:34:52.407Z,40.41
2023-05-18T12:35:52.415Z,40.43
2023-05-18T12:36:52.419Z,40.41
2023-05-18T12:37:52.480Z,40.40
2023-05-18T12:38:52.444Z,40.40
2023-05-18T12:39:52.460Z,40.40
2023-05-18T12:40:52.458Z,40.41
2023-05-18T12:41:52.466Z,40.39
2023-05-18T12:42:52.510Z,40.39
2023-05-18T12:43:52.496Z,40.38
2023-05-18T12:44:52.504Z,40.40
2023-05-18T12:45:52.556Z,40.41
2023-05-18T12:46:52.561Z,40.40
2023-05-18T12:47:52.541Z,40.38
2023-05-18T12:48:52.557Z,40.40
2023-05-18T12:49:52.548Z,40.37
2023-05-18T12:50:52.550Z,40.37
2023-05-18T12:51:52.568Z,40.39
2023-05-18T12:52:52.585Z,40.39
2023-05-18T12:53:52.610Z,40.38